Time;durP1;ratioP1;P1;durP2;ratioP2;P2;SDS_P1;SDS_P2;PMS_P1;PMS_P2;Temp;Humidity;BMP_temperature;BMP_pressure;BME280_temperature;BME280_humidity;BME280_pressure;Samples;Min_cycle;Max_cycle;Signal;HPM_P1;HPM_P2
2022/11/13 00:01:43;;;;;;;;;;;;;;;5.41;98.33;100220.23;213927;1312;24052;-71
2022/11/13 00:07:04;;;;;;;;;;;;;;;5.35;98.82;100224.34;213817;1312;25216;-70
2022/11/13 00:12:27;;;;;;;;;;;;;;;5.30;98.45;100223.30;213793;1312;22465;-71
2022/11/13 00:17:48;;;;;;;;;;;;;;;5.27;98.79;100217.94;213829;1312;24304;-71
2022/11/13 00:23:08;;;;;;;;;;;;;;;5.29;99.15;100217.48;213816;1312;22452;-71
2022/11/13 00:28:28;;;;;;;;;;;;;;;5.32;98.89;100221.89;213875;1308;22451;-71
2022/11/13 00:33:52;;;;;;;;;;;;;;;5.30;98.63;100222.55;213799;1305;22486;-71
2022/11/13 00:39:33;;;;;;;;;;;;;;;5.32;98.97;100215.11;213927;1312;24309;-73
2022/11/13 00:44:53;;;;;;;;;;;;;;;5.36;98.91;100215.36;213906;1305;22630;-71
2022/11/13 00:50:14;;;;;;;;;;;;;;;5.36;98.76;100210.38;213786;1312;22496;-70
2022/11/13 00:55:34;;;;;;;;;;;;;;;5.33;98.68;100204.72;213923;1304;24040;-72
2022/11/13 01:00:54;;;;;;;;;;;;;;;5.34;99.38;100201.35;213867;1312;22505;-71
2022/11/13 01:06:17;;;;;;;;;;;;;;;5.38;99.09;100198.39;213889;1312;26408;-71
2022/11/13 01:11:37;;;;;;;;;;;;;;;5.36;99.10;100192.30;213793;1312;22498;-71
2022/11/13 01:16:58;;;;;;;;;;;;;;;5.33;98.71;100182.48;213875;1308;22477;-71
2022/11/13 01:22:18;;;;;;;;;;;;;;;5.28;98.64;100189.39;213786;1312;25296;-71
2022/11/13 01:27:39;;;;;;;;;;;;;;;5.20;98.74;100181.05;213901;1312;22454;-70
2022/11/13 01:32:59;;;;;;;;;;;;;;;5.14;98.77;100176.88;213832;1312;24352;-70
2022/11/13 01:38:20;;;;;;;;;;;;;;;5.10;98.59;100173.48;213884;1311;25345;-70
2022/11/13 01:43:40;;;;;;;;;;;;;;;5.01;98.36;100168.55;213858;1312;22453;-70
2022/11/13 01:49:10;;;;;;;;;;;;;;;4.91;98.26;100159.26;213876;1311;24320;-70
2022/11/13 01:54:32;;;;;;;;;;;;;;;4.80;98.12;100146.59;213939;1312;22437;-70
2022/11/13 01:59:55;;;;;;;;;;;;;;;4.74;98.35;100140.19;213811;1312;25445;-70
2022/11/13 02:05:16;;;;;;;;;;;;;;;4.68;98.23;100139.10;213840;1307;22611;-68
2022/11/13 02:10:36;;;;;;;;;;;;;;;4.63;98.26;100138.15;213709;1312;117150;-72
2022/11/13 02:15:57;;;;;;;;;;;;;;;4.59;98.61;100132.30;213878;1312;22497;-72
2022/11/13 02:21:17;;;;;;;;;;;;;;;4.56;98.58;100128.15;213954;1311;25293;-70
2022/11/13 02:26:38;;;;;;;;;;;;;;;4.53;98.67;100124.02;213830;1312;25355;-70
2022/11/13 02:31:59;;;;;;;;;;;;;;;4.48;98.64;100130.47;213819;1312;25315;-71
2022/11/13 02:37:19;;;;;;;;;;;;;;;4.46;98.66;100139.90;213838;1305;23344;-72
2022/11/13 02:42:40;;;;;;;;;;;;;;;4.48;99.05;100141.40;213873;1312;22699;-70
2022/11/13 02:48:00;;;;;;;;;;;;;;;4.44;98.90;100139.39;213832;1312;22547;-71
2022/11/13 02:53:20;;;;;;;;;;;;;;;4.46;99.02;100138.23;213796;1312;22610;-71
2022/11/13 02:58:41;;;;;;;;;;;;;;;4.51;99.30;100138.80;213849;1312;25932;-69
2022/11/13 03:04:01;;;;;;;;;;;;;;;4.50;99.07;100138.04;213865;1312;22603;-70
2022/11/13 03:09:22;;;;;;;;;;;;;;;4.51;99.60;100136.08;213887;1312;23759;-71
2022/11/13 03:14:42;;;;;;;;;;;;;;;4.54;99.59;100141.39;213888;1312;24427;-70
2022/11/13 03:20:03;;;;;;;;;;;;;;;4.55;99.54;100135.92;213816;1312;26334;-70
2022/11/13 03:25:24;;;;;;;;;;;;;;;4.51;98.78;100134.03;213909;1312;24367;-71
2022/11/13 03:30:46;;;;;;;;;;;;;;;4.43;98.84;100136.24;213909;1312;22456;-70
2022/11/13 03:36:06;;;;;;;;;;;;;;;4.43;98.95;100139.23;213856;1312;22697;-70
2022/11/13 03:41:27;;;;;;;;;;;;;;;4.43;99.15;100143.06;213811;1312;22404;-71
2022/11/13 03:46:47;;;;;;;;;;;;;;;4.46;99.18;100144.85;213830;1312;24278;-71
2022/11/13 03:52:07;;;;;;;;;;;;;;;4.50;99.27;100142.69;213856;1312;22450;-70
2022/11/13 03:57:28;;;;;;;;;;;;;;;4.52;99.19;100139.54;213849;1311;22603;-71
2022/11/13 04:02:48;;;;;;;;;;;;;;;4.51;98.86;100133.70;213840;1312;25259;-71
2022/11/13 04:08:09;;;;;;;;;;;;;;;4.52;99.22;100125.48;213716;1312;22542;-71
2022/11/13 04:13:29;;;;;;;;;;;;;;;4.50;99.00;100126.81;213881;1312;22400;-71
2022/11/13 04:18:50;;;;;;;;;;;;;;;4.52;99.13;100131.61;213835;1312;25333;-70
2022/11/13 04:24:10;;;;;;;;;;;;;;;4.52;99.07;100135.53;213848;1310;22585;-71
2022/11/13 04:29:31;;;;;;;;;;;;;;;4.51;98.98;100135.79;213884;1312;25353;-70
2022/11/13 04:34:52;;;;;;;;;;;;;;;4.48;98.79;100134.13;213839;1312;25203;-71
2022/11/13 04:40:12;;;;;;;;;;;;;;;4.45;98.96;100133.88;213814;1307;22470;-71
2022/11/13 04:45:32;;;;;;;;;;;;;;;4.47;99.20;100128.79;213858;1312;25203;-71
2022/11/13 04:50:53;;;;;;;;;;;;;;;4.48;98.95;100131.61;213852;1312;22480;-70
2022/11/13 04:56:13;;;;;;;;;;;;;;;4.49;98.89;100122.38;213754;1312;22450;-69
2022/11/13 05:01:34;;;;;;;;;;;;;;;4.51;99.10;100135.79;213905;1311;22463;-70
2022/11/13 05:06:55;;;;;;;;;;;;;;;4.53;99.41;100131.53;213832;1312;22453;-71
2022/11/13 05:12:16;;;;;;;;;;;;;;;4.57;99.49;100129.54;213842;1298;22602;-70
2022/11/13 05:17:36;;;;;;;;;;;;;;;4.58;99.55;100134.09;213783;1312;23863;-71
2022/11/13 05:22:56;;;;;;;;;;;;;;;4.63;99.44;100132.73;213784;1312;22457;-71
2022/11/13 05:28:17;;;;;;;;;;;;;;;4.66;99.66;100121.71;213823;1301;24807;-73
2022/11/13 05:33:38;;;;;;;;;;;;;;;4.70;99.64;100117.60;213794;1312;22563;-71
2022/11/13 05:38:59;;;;;;;;;;;;;;;4.73;99.67;100117.85;213883;1311;24311;-70
2022/11/13 05:44:19;;;;;;;;;;;;;;;4.78;99.86;100118.39;213810;1312;22459;-71
2022/11/13 05:49:39;;;;;;;;;;;;;;;4.84;99.95;100121.36;213884;1308;22461;-71
2022/11/13 05:55:00;;;;;;;;;;;;;;;4.90;99.85;100110.11;213887;1312;25355;-71
2022/11/13 06:00:21;;;;;;;;;;;;;;;4.98;99.91;100104.66;213798;1312;24349;-71
2022/11/13 06:05:41;;;;;;;;;;;;;;;5.01;99.99;100107.45;213850;1312;25295;-71
2022/11/13 06:11:03;;;;;;;;;;;;;;;5.05;99.83;100111.41;213898;1312;22444;-70
2022/11/13 06:16:25;;;;;;;;;;;;;;;5.10;100.00;100109.13;213814;1312;23281;-70
2022/11/13 06:21:46;;;;;;;;;;;;;;;5.15;99.97;100105.14;213842;1306;22509;-71
2022/11/13 06:27:06;;;;;;;;;;;;;;;5.20;100.00;100106.77;213838;1312;22612;-71
2022/11/13 06:32:27;;;;;;;;;;;;;;;5.27;100.00;100112.22;213943;1312;22545;-71
2022/11/13 06:37:47;;;;;;;;;;;;;;;5.34;99.98;100109.29;213878;1304;22468;-71
2022/11/13 06:43:08;;;;;;;;;;;;;;;5.36;99.76;100109.52;213845;1312;22449;-71
2022/11/13 06:48:28;;;;;;;;;;;;;;;5.38;99.85;100100.27;213808;1312;22747;-71
2022/11/13 06:53:49;;;;;;;;;;;;;;;5.38;99.63;100101.06;213835;1312;25306;-71
2022/11/13 06:59:10;;;;;;;;;;;;;;;5.43;99.83;100099.05;213818;1312;22774;-71
2022/11/13 07:04:30;;;;;;;;;;;;;;;5.49;99.85;100103.30;213808;1311;23724;-71
2022/11/13 07:09:51;;;;;;;;;;;;;;;5.58;99.92;100097.61;213773;1312;24053;-71
2022/11/13 07:15:11;;;;;;;;;;;;;;;5.66;99.47;100098.95;213833;1297;22434;-72
2022/11/13 07:20:32;;;;;;;;;;;;;;;5.71;99.37;100096.35;213797;1312;24282;-71
2022/11/13 07:25:54;;;;;;;;;;;;;;;5.86;99.63;100095.43;213890;1312;22451;-70
2022/11/13 07:31:15;;;;;;;;;;;;;;;5.96;99.12;100092.84;213825;1312;25335;-72
2022/11/13 07:36:36;;;;;;;;;;;;;;;6.02;99.00;100091.12;213774;1301;22654;-70
2022/11/13 07:41:56;;;;;;;;;;;;;;;6.13;98.73;100088.84;213879;1312;22557;-71
2022/11/13 07:47:16;;;;;;;;;;;;;;;6.25;98.71;100084.36;213882;1308;22444;-70
2022/11/13 07:52:37;;;;;;;;;;;;;;;6.34;98.75;100086.06;213848;1312;22605;-70
2022/11/13 07:57:58;;;;;;;;;;;;;;;6.46;98.45;100091.96;213778;1312;25360;-71
2022/11/13 08:03:19;;;;;;;;;;;;;;;6.53;98.10;100094.90;213779;1312;22580;-71
2022/11/13 08:08:39;;;;;;;;;;;;;;;6.56;97.64;100101.15;213824;1312;24382;-71
2022/11/13 08:14:00;;;;;;;;;;;;;;;6.56;97.33;100101.96;213817;1312;22464;-70
2022/11/13 08:19:20;;;;;;;;;;;;;;;6.66;97.63;100096.39;213745;1312;22570;-71
2022/11/13 08:24:40;;;;;;;;;;;;;;;6.78;97.48;100092.99;213833;1312;24468;-71
2022/11/13 08:30:01;;;;;;;;;;;;;;;6.91;97.40;100092.82;213853;1312;25238;-71
2022/11/13 08:35:22;;;;;;;;;;;;;;;7.03;97.43;100086.95;213667;1312;25288;-71
2022/11/13 08:40:48;;;;;;;;;;;;;;;7.10;97.08;100095.52;213809;1312;24910;-71
2022/11/13 08:46:09;;;;;;;;;;;;;;;7.18;96.55;100092.55;213880;1312;24081;-70
2022/11/13 08:51:29;;;;;;;;;;;;;;;7.21;96.55;100091.80;213862;1310;24862;-71
2022/11/13 08:56:50;;;;;;;;;;;;;;;7.35;96.81;100091.98;213886;1307;22506;-70
2022/11/13 09:02:17;;;;;;;;;;;;;;;7.55;96.41;100096.95;213786;1311;22803;-70
2022/11/13 09:07:37;;;;;;;;;;;;;;;7.42;95.14;100106.17;213868;1312;24426;-71
2022/11/13 09:13:00;;;;;;;;;;;;;;;7.47;95.78;100107.60;213843;1312;22458;-70
2022/11/13 09:18:21;;;;;;;;;;;;;;;7.66;96.41;100109.44;213857;1312;22606;-70
2022/11/13 09:23:41;;;;;;;;;;;;;;;7.89;96.33;100103.92;213917;1312;25272;-70
2022/11/13 09:29:02;;;;;;;;;;;;;;;8.11;96.46;100106.45;213817;1311;22535;-71
2022/11/13 09:34:24;;;;;;;;;;;;;;;8.35;96.39;100106.54;213867;1301;22454;-72
2022/11/13 09:39:44;;;;;;;;;;;;;;;8.34;94.75;100112.05;213978;1290;22475;-71
2022/11/13 09:45:06;;;;;;;;;;;;;;;8.24;94.58;100109.63;213796;1312;25329;-71
2022/11/13 09:50:30;;;;;;;;;;;;;;;8.30;94.98;100107.42;213856;1312;24291;-72
2022/11/13 09:55:56;;;;;;;;;;;;;;;8.32;94.58;100100.30;213758;1312;22473;-71
2022/11/13 10:01:22;;;;;;;;;;;;;;;8.42;94.96;100098.49;213789;1312;25469;-71
2022/11/13 10:06:48;;;;;;;;;;;;;;;8.58;94.98;100093.40;213782;1312;25250;-70
2022/11/13 10:12:12;;;;;;;;;;;;;;;8.74;94.98;100087.93;213827;1312;24429;-70
2022/11/13 10:17:38;;;;;;;;;;;;;;;8.84;94.56;100087.92;213762;1312;22461;-72
2022/11/13 10:22:59;;;;;;;;;;;;;;;8.96;94.59;100086.19;213843;1312;25213;-74
2022/11/13 10:28:24;;;;;;;;;;;;;;;9.06;94.16;100076.42;213864;1312;23161;-72
2022/11/13 10:34:05;;;;;;;;;;;;;;;9.12;93.40;100073.03;213887;1311;22464;-70
2022/11/13 10:39:26;;;;;;;;;;;;;;;9.15;93.58;100069.27;213782;1312;24307;-70
2022/11/13 10:44:54;;;;;;;;;;;;;;;9.34;93.99;100066.64;213826;1312;24222;-71
2022/11/13 10:50:23;;;;;;;;;;;;;;;9.49;93.73;100067.45;213905;1312;22447;-74
2022/11/13 10:55:44;;;;;;;;;;;;;;;9.64;93.44;100070.04;213855;1311;22599;-70
2022/11/13 11:01:15;;;;;;;;;;;;;;;9.75;93.34;100064.92;213787;1312;22502;-71
2022/11/13 11:06:37;;;;;;;;;;;;;;;9.86;93.09;100061.92;213927;1312;25455;-71
2022/11/13 11:12:20;;;;;;;;;;;;;;;10.00;93.13;100054.67;213820;1312;25404;-70
2022/11/13 11:17:52;;;;;;;;;;;;;;;10.15;92.78;100045.50;213885;1312;22570;-70
2022/11/13 11:23:32;;;;;;;;;;;;;;;10.13;91.77;100035.84;213806;1312;22569;-70
2022/11/13 11:29:02;;;;;;;;;;;;;;;10.20;91.86;100033.02;213870;1310;22587;-70
2022/11/13 11:34:32;;;;;;;;;;;;;;;10.30;91.82;100031.71;213757;1311;22988;-71
2022/11/13 11:39:57;;;;;;;;;;;;;;;10.40;91.41;100021.09;213860;1312;22466;-70
2022/11/13 11:45:23;;;;;;;;;;;;;;;10.51;91.65;100012.52;213836;1312;22484;-71
2022/11/13 11:50:45;;;;;;;;;;;;;;;10.68;91.50;100012.23;213822;1312;24285;-71
2022/11/13 11:56:11;;;;;;;;;;;;;;;10.76;91.02;100004.57;213886;1312;25235;-71
2022/11/13 12:01:52;;;;;;;;;;;;;;;10.76;90.00;99996.54;213766;1312;22461;-71
2022/11/13 12:07:21;;;;;;;;;;;;;;;10.76;89.74;99986.18;213622;1312;22482;-71
2022/11/13 12:12:44;;;;;;;;;;;;;;;10.86;90.20;99974.77;213858;1311;22510;-72
2022/11/13 12:18:17;;;;;;;;;;;;;;;11.02;90.53;99963.30;213935;1296;22446;-70
2022/11/13 12:23:52;;;;;;;;;;;;;;;11.16;90.40;99954.40;213837;1311;24331;-71
2022/11/13 12:29:16;;;;;;;;;;;;;;;11.22;89.48;99943.11;213831;1312;25474;-72
2022/11/13 12:34:39;;;;;;;;;;;;;;;11.29;89.75;99935.62;213889;1312;25444;-71
2022/11/13 12:40:05;;;;;;;;;;;;;;;11.36;89.48;99931.07;213961;1312;22447;-71
2022/11/13 12:45:37;;;;;;;;;;;;;;;11.42;89.44;99921.38;213778;1312;22503;-71
2022/11/13 12:50:59;;;;;;;;;;;;;;;11.49;89.24;99913.13;213837;1312;22468;-71
2022/11/13 12:56:23;;;;;;;;;;;;;;;11.53;88.95;99908.93;213825;1312;25297;-71
2022/11/13 13:01:46;;;;;;;;;;;;;;;11.56;88.76;99906.73;213859;1312;23252;-71
2022/11/13 13:07:09;;;;;;;;;;;;;;;11.58;88.63;99896.23;213817;1312;22447;-69
2022/11/13 13:12:30;;;;;;;;;;;;;;;11.58;88.45;99900.30;213774;1304;22669;-72
2022/11/13 13:18:11;;;;;;;;;;;;;;;11.58;88.36;99896.66;213802;1311;22462;-72
2022/11/13 13:23:31;;;;;;;;;;;;;;;11.58;88.10;99889.69;213806;1311;22502;-71
2022/11/13 13:28:53;;;;;;;;;;;;;;;11.56;88.00;99888.44;213745;1312;22566;-72
2022/11/13 13:34:28;;;;;;;;;;;;;;;11.54;87.73;99882.90;213826;1312;23313;-70
2022/11/13 13:40:01;;;;;;;;;;;;;;;11.48;87.71;99880.48;213848;1312;22496;-72
2022/11/13 13:45:26;;;;;;;;;;;;;;;11.39;87.39;99879.79;213809;1313;26054;-70
2022/11/13 13:50:48;;;;;;;;;;;;;;;11.29;87.31;99871.07;213844;1312;25361;-70
2022/11/13 13:56:10;;;;;;;;;;;;;;;11.19;87.38;99871.86;213812;1312;22442;-71
2022/11/13 14:01:32;;;;;;;;;;;;;;;11.02;87.30;99864.30;213906;1312;24434;-71
2022/11/13 14:06:56;;;;;;;;;;;;;;;10.50;86.23;99863.46;213885;1312;22450;-71
2022/11/13 14:12:18;;;;;;;;;;;;;;;9.99;86.81;99865.77;213752;1312;132800;-71
2022/11/13 14:17:39;;;;;;;;;;;;;;;9.57;87.18;99873.02;213860;1311;25279;-71
2022/11/13 14:23:00;;;;;;;;;;;;;;;9.16;87.75;99871.40;213875;1312;22554;-70
2022/11/13 14:28:22;;;;;;;;;;;;;;;8.84;88.11;99863.15;213824;1312;23067;-71
2022/11/13 14:33:44;;;;;;;;;;;;;;;8.54;88.45;99862.78;213832;1312;24281;-70
2022/11/13 14:39:05;;;;;;;;;;;;;;;8.23;88.79;99858.04;213751;1312;22471;-70
2022/11/13 14:44:27;;;;;;;;;;;;;;;7.89;89.14;99856.79;213825;1312;22473;-71
2022/11/13 14:49:52;;;;;;;;;;;;;;;7.60;89.75;99855.34;213879;1312;24205;-71
2022/11/13 14:55:19;;;;;;;;;;;;;;;7.33;90.11;99846.46;213927;1312;22524;-70
2022/11/13 15:00:40;;;;;;;;;;;;;;;7.12;90.57;99847.74;213864;1311;22467;-70
2022/11/13 15:06:00;;;;;;;;;;;;;;;6.94;91.08;99841.28;213859;1312;24484;-71
2022/11/13 15:11:22;;;;;;;;;;;;;;;6.78;91.53;99840.40;213917;1312;22579;-71
2022/11/13 15:16:43;;;;;;;;;;;;;;;6.61;91.90;99843.27;213882;1312;26366;-71
2022/11/13 15:22:07;;;;;;;;;;;;;;;6.48;92.34;99839.16;213900;1311;25365;-70
2022/11/13 15:27:48;;;;;;;;;;;;;;;6.34;92.49;99840.52;213925;1311;22447;-71
2022/11/13 15:33:11;;;;;;;;;;;;;;;6.20;92.90;99837.10;213887;1312;22748;-72
2022/11/13 15:38:32;;;;;;;;;;;;;;;6.03;92.77;99835.65;213888;1312;25352;-70
2022/11/13 15:43:54;;;;;;;;;;;;;;;5.90;92.77;99834.21;213801;1309;22462;-70
2022/11/13 15:49:14;;;;;;;;;;;;;;;5.75;93.32;99839.78;213875;1312;25025;-71
2022/11/13 15:54:36;;;;;;;;;;;;;;;5.58;93.49;99838.58;213824;1312;24526;-71
2022/11/13 15:59:57;;;;;;;;;;;;;;;5.45;94.01;99835.63;213923;1312;22454;-70
2022/11/13 16:05:18;;;;;;;;;;;;;;;5.39;94.28;99842.75;213942;1312;26453;-69
2022/11/13 16:10:38;;;;;;;;;;;;;;;5.34;94.30;99849.05;213875;1312;24234;-71
2022/11/13 16:15:59;;;;;;;;;;;;;;;5.27;94.30;99851.70;213969;1297;22462;-69
2022/11/13 16:21:20;;;;;;;;;;;;;;;5.25;94.86;99853.55;213863;1312;23302;-71
2022/11/13 16:26:44;;;;;;;;;;;;;;;5.29;95.32;99860.20;213925;1313;25505;-72
2022/11/13 16:32:11;;;;;;;;;;;;;;;5.37;95.96;99862.63;213984;1312;24432;-71
2022/11/13 16:37:31;;;;;;;;;;;;;;;5.39;95.65;99859.00;213914;1312;22907;-71
2022/11/13 16:42:52;;;;;;;;;;;;;;;5.41;96.07;99859.29;213893;1312;22458;-71
2022/11/13 16:48:14;;;;;;;;;;;;;;;5.43;96.21;99855.86;213740;1313;24296;-70
2022/11/13 16:53:34;;;;;;;;;;;;;;;5.45;96.29;99849.98;213904;1312;22465;-71
2022/11/13 16:58:55;;;;;;;;;;;;;;;5.48;96.35;99844.63;213843;1311;22471;-71
2022/11/13 17:04:15;;;;;;;;;;;;;;;5.50;96.57;99845.65;213818;1307;24336;-71
2022/11/13 17:09:38;;;;;;;;;;;;;;;5.52;96.52;99848.12;213846;1312;22498;-71
2022/11/13 17:14:58;;;;;;;;;;;;;;;5.53;96.68;99845.73;213757;1311;22461;-71
2022/11/13 17:20:18;;;;;;;;;;;;;;;5.55;96.85;99850.00;213804;1312;22479;-70
2022/11/13 17:25:39;;;;;;;;;;;;;;;5.54;96.87;99841.27;213867;1310;22467;-71
2022/11/13 17:31:07;;;;;;;;;;;;;;;5.49;96.44;99840.48;213837;1312;25429;-70
2022/11/13 17:36:28;;;;;;;;;;;;;;;5.43;96.65;99838.65;213833;1312;25347;-71
2022/11/13 17:41:49;;;;;;;;;;;;;;;5.38;97.04;99836.81;213875;1312;26389;-71
2022/11/13 17:47:09;;;;;;;;;;;;;;;5.34;97.15;99839.97;213977;1312;25368;-70
2022/11/13 17:52:30;;;;;;;;;;;;;;;5.34;97.51;99841.97;213784;1312;22470;-70
2022/11/13 17:57:50;;;;;;;;;;;;;;;5.35;97.19;99839.67;213843;1311;25284;-72
2022/11/13 18:03:11;;;;;;;;;;;;;;;5.34;97.27;99822.86;213806;1312;22871;-71
2022/11/13 18:08:32;;;;;;;;;;;;;;;5.35;97.54;99827.23;213833;1312;22477;-70
2022/11/13 18:13:52;;;;;;;;;;;;;;;5.39;97.88;99827.11;213791;1312;25310;-71
2022/11/13 18:19:13;;;;;;;;;;;;;;;5.43;98.12;99823.44;213841;1312;22913;-71
2022/11/13 18:24:33;;;;;;;;;;;;;;;5.45;98.13;99824.34;213858;1305;22483;-73
2022/11/13 18:29:54;;;;;;;;;;;;;;;5.46;97.81;99830.38;213923;1312;25249;-71
2022/11/13 18:35:14;;;;;;;;;;;;;;;5.45;97.94;99830.27;213859;1312;22623;-71
2022/11/13 18:40:35;;;;;;;;;;;;;;;5.46;98.19;99828.88;213969;1311;22474;-71
2022/11/13 18:45:56;;;;;;;;;;;;;;;5.47;98.23;99830.08;213902;1307;23022;-72
2022/11/13 18:51:19;;;;;;;;;;;;;;;5.47;98.65;99827.95;213932;1312;22507;-70
2022/11/13 18:56:39;;;;;;;;;;;;;;;5.41;98.31;99828.26;213837;1304;22640;-71
2022/11/13 19:02:00;;;;;;;;;;;;;;;5.41;98.51;99827.60;213785;1312;22597;-71
2022/11/13 19:07:21;;;;;;;;;;;;;;;5.41;98.80;99838.55;213836;1312;22580;-74
2022/11/13 19:12:41;;;;;;;;;;;;;;;5.40;98.71;99836.86;213773;1312;22582;-70
2022/11/13 19:18:02;;;;;;;;;;;;;;;5.37;98.92;99840.46;213875;1311;24636;-70
2022/11/13 19:23:22;;;;;;;;;;;;;;;5.38;98.90;99841.55;213901;1312;25194;-71
2022/11/13 19:28:50;;;;;;;;;;;;;;;5.36;98.79;99839.37;213912;1312;22445;-71
2022/11/13 19:34:11;;;;;;;;;;;;;;;5.33;98.97;99842.36;213745;1312;24450;-74
2022/11/13 19:39:31;;;;;;;;;;;;;;;5.34;98.97;99843.53;213813;1312;22584;-71
2022/11/13 19:44:52;;;;;;;;;;;;;;;5.32;98.98;99840.77;213789;1312;22473;-70
2022/11/13 19:50:12;;;;;;;;;;;;;;;5.29;98.88;99841.27;213908;1312;25270;-71
2022/11/13 19:55:33;;;;;;;;;;;;;;;5.30;99.12;99836.83;213772;1312;23724;-71
2022/11/13 20:00:54;;;;;;;;;;;;;;;5.31;99.16;99834.20;213759;1312;24622;-71
2022/11/13 20:06:16;;;;;;;;;;;;;;;5.33;99.60;99836.55;213788;1312;25259;-70
2022/11/13 20:11:36;;;;;;;;;;;;;;;5.33;98.99;99831.98;213904;1311;22490;-71
2022/11/13 20:16:56;;;;;;;;;;;;;;;5.36;99.62;99829.16;213745;1311;22448;-70
2022/11/13 20:22:17;;;;;;;;;;;;;;;5.37;99.50;99823.56;213880;1312;24282;-69
2022/11/13 20:27:37;;;;;;;;;;;;;;;5.33;99.20;99819.96;213824;1312;23735;-71
2022/11/13 20:33:03;;;;;;;;;;;;;;;5.34;99.46;99821.64;213859;1311;22475;-71
2022/11/13 20:38:24;;;;;;;;;;;;;;;5.36;99.54;99822.69;213882;1312;25278;-71
2022/11/13 20:43:46;;;;;;;;;;;;;;;5.33;99.59;99813.21;213830;1311;22618;-71
2022/11/13 20:49:06;;;;;;;;;;;;;;;5.30;99.67;99816.91;213858;1312;22461;-71
2022/11/13 20:54:27;;;;;;;;;;;;;;;5.29;99.50;99819.33;213773;1312;24402;-71
2022/11/13 20:59:47;;;;;;;;;;;;;;;5.30;99.67;99814.36;213804;1312;24263;-71
2022/11/13 21:05:08;;;;;;;;;;;;;;;5.30;99.65;99812.61;213885;1304;22472;-71
2022/11/13 21:10:28;;;;;;;;;;;;;;;5.25;99.47;99812.27;213834;1308;22950;-71
2022/11/13 21:15:49;;;;;;;;;;;;;;;5.20;99.44;99803.86;213836;1312;22465;-70
2022/11/13 21:21:10;;;;;;;;;;;;;;;5.15;99.64;99804.20;213818;1312;25236;-70
2022/11/13 21:26:31;;;;;;;;;;;;;;;5.16;99.66;99809.34;213922;1311;25193;-72
2022/11/13 21:31:52;;;;;;;;;;;;;;;5.13;99.54;99815.59;213821;1310;22534;-70
2022/11/13 21:37:13;;;;;;;;;;;;;;;5.04;99.40;99819.55;213824;1311;22628;-70
2022/11/13 21:42:33;;;;;;;;;;;;;;;5.01;99.49;99820.30;213854;1312;25389;-71
2022/11/13 21:47:54;;;;;;;;;;;;;;;4.97;99.76;99821.61;213862;1312;23854;-72
2022/11/13 21:53:14;;;;;;;;;;;;;;;4.98;99.75;99821.20;213841;1312;22454;-72
2022/11/13 21:58:36;;;;;;;;;;;;;;;4.96;99.87;99822.16;213953;1312;25136;-70
2022/11/13 22:03:56;;;;;;;;;;;;;;;4.94;99.89;99811.44;213908;1312;23949;-71
2022/11/13 22:09:24;;;;;;;;;;;;;;;4.90;99.85;99809.45;213962;1304;22491;-71
2022/11/13 22:14:52;;;;;;;;;;;;;;;4.90;100.00;99814.40;213928;1304;25409;-71
2022/11/13 22:20:12;;;;;;;;;;;;;;;4.94;99.95;99825.58;213871;1312;22918;-71
2022/11/13 22:25:33;;;;;;;;;;;;;;;4.99;100.00;99823.02;214076;1312;24303;-72
2022/11/13 22:30:54;;;;;;;;;;;;;;;5.05;100.00;99814.16;213896;1312;25429;-71
2022/11/13 22:36:16;;;;;;;;;;;;;;;5.08;100.00;99817.89;213869;1312;22478;-70
2022/11/13 22:41:36;;;;;;;;;;;;;;;5.08;100.00;99814.27;213818;1312;22450;-70
2022/11/13 22:46:57;;;;;;;;;;;;;;;5.06;100.00;99809.52;213834;1312;25298;-70
2022/11/13 22:52:17;;;;;;;;;;;;;;;5.08;100.00;99794.58;213859;1312;24176;-70
2022/11/13 22:57:38;;;;;;;;;;;;;;;5.07;100.00;99789.25;213805;1311;22581;-71
2022/11/13 23:02:59;;;;;;;;;;;;;;;5.09;100.00;99779.20;213858;1312;22910;-70
2022/11/13 23:08:20;;;;;;;;;;;;;;;5.11;100.00;99765.80;213826;1312;22450;-73
2022/11/13 23:13:44;;;;;;;;;;;;;;;5.11;100.00;99760.17;213831;1312;22451;-70
2022/11/13 23:19:05;;;;;;;;;;;;;;;5.13;100.00;99752.90;213826;1312;22452;-71
2022/11/13 23:24:25;;;;;;;;;;;;;;;5.11;100.00;99755.97;213844;1311;25355;-71
2022/11/13 23:29:45;;;;;;;;;;;;;;;5.09;100.00;99749.09;213809;1312;22944;-71
2022/11/13 23:35:09;;;;;;;;;;;;;;;5.06;100.00;99747.73;213850;1312;24363;-70
2022/11/13 23:40:30;;;;;;;;;;;;;;;5.06;100.00;99742.52;213832;1311;22489;-71
2022/11/13 23:45:51;;;;;;;;;;;;;;;5.09;100.00;99743.20;213798;1306;22443;-71
2022/11/13 23:51:11;;;;;;;;;;;;;;;5.11;100.00;99744.45;213826;1312;23123;-72
2022/11/13 23:56:31;;;;;;;;;;;;;;;5.09;100.00;99743.78;213791;1307;24010;-72
